sensor_id;sensor_type;location;lat;lon;timestamp;temperature;humidity
9998;DHT22;5038;53.064;8.624;2024-02-16T00:00:27;11.10;99.90
9998;DHT22;5038;53.064;8.624;2024-02-16T00:02:56;11.10;99.90
9998;DHT22;5038;53.064;8.624;2024-02-16T00:05:24;11.10;99.90
9998;DHT22;5038;53.064;8.624;2024-02-16T00:07:53;11.10;99.90
9998;DHT22;5038;53.064;8.624;2024-02-16T00:10:21;11.10;99.90
9998;DHT22;5038;53.064;8.624;2024-02-16T00:12:49;11.10;99.90
9998;DHT22;5038;53.064;8.624;2024-02-16T00:15:19;11.00;99.90
9998;DHT22;5038;53.064;8.624;2024-02-16T00:17:47;11.00;99.90
9998;DHT22;5038;53.064;8.624;2024-02-16T00:20:16;11.00;99.90
9998;DHT22;5038;53.064;8.624;2024-02-16T00:22:46;11.00;99.90
9998;DHT22;5038;53.064;8.624;2024-02-16T00:25:14;11.00;99.90
9998;DHT22;5038;53.064;8.624;2024-02-16T00:27:42;11.00;99.90
9998;DHT22;5038;53.064;8.624;2024-02-16T00:30:11;11.00;99.90
9998;DHT22;5038;53.064;8.624;2024-02-16T00:32:44;11.00;99.90
9998;DHT22;5038;53.064;8.624;2024-02-16T00:35:12;11.00;99.90
9998;DHT22;5038;53.064;8.624;2024-02-16T00:37:43;10.90;99.90
9998;DHT22;5038;53.064;8.624;2024-02-16T00:40:12;10.90;99.90
9998;DHT22;5038;53.064;8.624;2024-02-16T00:42:41;10.90;99.90
9998;DHT22;5038;53.064;8.624;2024-02-16T00:45:09;10.90;99.90
9998;DHT22;5038;53.064;8.624;2024-02-16T00:47:36;10.90;99.90
9998;DHT22;5038;53.064;8.624;2024-02-16T00:50:09;10.90;99.90
9998;DHT22;5038;53.064;8.624;2024-02-16T00:52:37;10.90;99.90
9998;DHT22;5038;53.064;8.624;2024-02-16T00:55:08;10.90;99.90
9998;DHT22;5038;53.064;8.624;2024-02-16T00:57:36;10.90;99.90
9998;DHT22;5038;53.064;8.624;2024-02-16T01:00:06;10.90;99.90
9998;DHT22;5038;53.064;8.624;2024-02-16T01:02:36;10.90;99.90
9998;DHT22;5038;53.064;8.624;2024-02-16T01:05:05;10.90;99.90
9998;DHT22;5038;53.064;8.624;2024-02-16T01:07:34;10.90;99.90
9998;DHT22;5038;53.064;8.624;2024-02-16T01:10:03;10.90;99.90
9998;DHT22;5038;53.064;8.624;2024-02-16T01:12:31;10.90;99.90
9998;DHT22;5038;53.064;8.624;2024-02-16T01:14:59;10.90;99.90
9998;DHT22;5038;53.064;8.624;2024-02-16T01:17:28;10.90;99.90
9998;DHT22;5038;53.064;8.624;2024-02-16T01:19:57;10.90;99.90
9998;DHT22;5038;53.064;8.624;2024-02-16T01:22:25;10.90;99.90
9998;DHT22;5038;53.064;8.624;2024-02-16T01:24:57;10.90;99.90
9998;DHT22;5038;53.064;8.624;2024-02-16T01:27:25;10.90;99.90
9998;DHT22;5038;53.064;8.624;2024-02-16T01:29:55;10.90;99.90
9998;DHT22;5038;53.064;8.624;2024-02-16T01:32:23;10.90;99.90
9998;DHT22;5038;53.064;8.624;2024-02-16T01:34:52;10.90;99.90
9998;DHT22;5038;53.064;8.624;2024-02-16T01:37:20;10.90;99.90
9998;DHT22;5038;53.064;8.624;2024-02-16T01:39:49;10.90;99.90
9998;DHT22;5038;53.064;8.624;2024-02-16T01:42:18;10.90;99.90
9998;DHT22;5038;53.064;8.624;2024-02-16T01:44:47;10.90;99.90
9998;DHT22;5038;53.064;8.624;2024-02-16T01:47:16;10.90;99.90
9998;DHT22;5038;53.064;8.624;2024-02-16T01:49:46;10.90;99.90
9998;DHT22;5038;53.064;8.624;2024-02-16T01:52:14;10.90;99.90
9998;DHT22;5038;53.064;8.624;2024-02-16T01:54:43;10.80;99.90
9998;DHT22;5038;53.064;8.624;2024-02-16T01:57:11;10.80;99.90
9998;DHT22;5038;53.064;8.624;2024-02-16T01:59:41;10.80;99.90
9998;DHT22;5038;53.064;8.624;2024-02-16T02:02:10;10.80;99.90
9998;DHT22;5038;53.064;8.624;2024-02-16T02:04:38;10.80;99.90
9998;DHT22;5038;53.064;8.624;2024-02-16T02:07:13;10.80;99.90
9998;DHT22;5038;53.064;8.624;2024-02-16T02:09:42;10.80;99.90
9998;DHT22;5038;53.064;8.624;2024-02-16T02:12:10;10.80;99.90
9998;DHT22;5038;53.064;8.624;2024-02-16T02:14:40;10.80;99.90
9998;DHT22;5038;53.064;8.624;2024-02-16T02:17:08;10.80;99.90
9998;DHT22;5038;53.064;8.624;2024-02-16T02:19:37;10.70;99.90
9998;DHT22;5038;53.064;8.624;2024-02-16T02:22:12;10.70;99.90
9998;DHT22;5038;53.064;8.624;2024-02-16T02:24:40;10.70;99.90
9998;DHT22;5038;53.064;8.624;2024-02-16T02:27:09;10.70;99.90
9998;DHT22;5038;53.064;8.624;2024-02-16T02:29:37;10.70;99.90
9998;DHT22;5038;53.064;8.624;2024-02-16T02:32:06;10.70;99.90
9998;DHT22;5038;53.064;8.624;2024-02-16T02:34:34;10.70;99.90
9998;DHT22;5038;53.064;8.624;2024-02-16T02:37:03;10.70;99.90
9998;DHT22;5038;53.064;8.624;2024-02-16T02:39:33;10.70;99.90
9998;DHT22;5038;53.064;8.624;2024-02-16T02:42:02;10.70;99.90
9998;DHT22;5038;53.064;8.624;2024-02-16T02:44:30;10.70;99.90
9998;DHT22;5038;53.064;8.624;2024-02-16T02:46:59;10.70;99.90
9998;DHT22;5038;53.064;8.624;2024-02-16T02:49:28;10.70;99.90
9998;DHT22;5038;53.064;8.624;2024-02-16T02:51:56;10.70;99.90
9998;DHT22;5038;53.064;8.624;2024-02-16T02:54:24;10.70;99.90
9998;DHT22;5038;53.064;8.624;2024-02-16T02:56:54;10.70;99.90
9998;DHT22;5038;53.064;8.624;2024-02-16T02:59:23;10.70;99.90
9998;DHT22;5038;53.064;8.624;2024-02-16T03:01:51;10.70;99.90
9998;DHT22;5038;53.064;8.624;2024-02-16T03:04:19;10.70;99.90
9998;DHT22;5038;53.064;8.624;2024-02-16T03:06:47;10.70;99.90
9998;DHT22;5038;53.064;8.624;2024-02-16T03:09:15;10.60;99.90
9998;DHT22;5038;53.064;8.624;2024-02-16T03:11:44;10.70;99.90
9998;DHT22;5038;53.064;8.624;2024-02-16T03:14:13;10.70;99.90
9998;DHT22;5038;53.064;8.624;2024-02-16T03:16:42;10.70;99.90
9998;DHT22;5038;53.064;8.624;2024-02-16T03:19:10;10.70;99.90
9998;DHT22;5038;53.064;8.624;2024-02-16T03:21:38;10.70;99.90
9998;DHT22;5038;53.064;8.624;2024-02-16T03:24:07;10.70;99.90
9998;DHT22;5038;53.064;8.624;2024-02-16T03:26:35;10.60;99.90
9998;DHT22;5038;53.064;8.624;2024-02-16T03:29:04;10.60;99.90
9998;DHT22;5038;53.064;8.624;2024-02-16T03:31:33;10.60;99.90
9998;DHT22;5038;53.064;8.624;2024-02-16T03:34:02;10.60;99.90
9998;DHT22;5038;53.064;8.624;2024-02-16T03:36:31;10.60;99.90
9998;DHT22;5038;53.064;8.624;2024-02-16T03:38:59;10.60;99.90
9998;DHT22;5038;53.064;8.624;2024-02-16T03:41:27;10.60;99.90
9998;DHT22;5038;53.064;8.624;2024-02-16T03:43:56;10.60;99.90
9998;DHT22;5038;53.064;8.624;2024-02-16T03:46:25;10.60;99.90
9998;DHT22;5038;53.064;8.624;2024-02-16T03:48:55;10.60;99.90
9998;DHT22;5038;53.064;8.624;2024-02-16T03:51:23;10.60;99.90
9998;DHT22;5038;53.064;8.624;2024-02-16T03:53:51;10.60;99.90
9998;DHT22;5038;53.064;8.624;2024-02-16T03:56:20;10.60;99.90
9998;DHT22;5038;53.064;8.624;2024-02-16T03:58:48;10.60;99.90
9998;DHT22;5038;53.064;8.624;2024-02-16T04:01:16;10.60;99.90
9998;DHT22;5038;53.064;8.624;2024-02-16T04:03:45;10.60;99.90
9998;DHT22;5038;53.064;8.624;2024-02-16T04:06:15;10.60;99.90
9998;DHT22;5038;53.064;8.624;2024-02-16T04:08:43;10.60;99.90
9998;DHT22;5038;53.064;8.624;2024-02-16T04:11:11;10.60;99.90
9998;DHT22;5038;53.064;8.624;2024-02-16T04:13:42;10.60;99.90
9998;DHT22;5038;53.064;8.624;2024-02-16T04:16:10;10.60;99.90
9998;DHT22;5038;53.064;8.624;2024-02-16T04:18:38;10.60;99.90
9998;DHT22;5038;53.064;8.624;2024-02-16T04:21:07;10.60;99.90
9998;DHT22;5038;53.064;8.624;2024-02-16T04:23:37;10.60;99.90
9998;DHT22;5038;53.064;8.624;2024-02-16T04:26:05;10.60;99.90
9998;DHT22;5038;53.064;8.624;2024-02-16T04:28:34;10.60;99.90
9998;DHT22;5038;53.064;8.624;2024-02-16T04:31:02;10.60;99.90
9998;DHT22;5038;53.064;8.624;2024-02-16T04:33:31;10.60;99.90
9998;DHT22;5038;53.064;8.624;2024-02-16T04:35:59;10.60;99.90
9998;DHT22;5038;53.064;8.624;2024-02-16T04:38:27;10.50;99.90
9998;DHT22;5038;53.064;8.624;2024-02-16T04:40:57;10.50;99.90
9998;DHT22;5038;53.064;8.624;2024-02-16T04:43:25;10.50;99.90
9998;DHT22;5038;53.064;8.624;2024-02-16T04:45:53;10.50;99.90
9998;DHT22;5038;53.064;8.624;2024-02-16T04:48:22;10.50;99.90
9998;DHT22;5038;53.064;8.624;2024-02-16T04:50:51;10.50;99.90
9998;DHT22;5038;53.064;8.624;2024-02-16T04:53:19;10.50;99.90
9998;DHT22;5038;53.064;8.624;2024-02-16T04:55:47;10.50;99.90
9998;DHT22;5038;53.064;8.624;2024-02-16T04:58:17;10.50;99.90
9998;DHT22;5038;53.064;8.624;2024-02-16T05:00:45;10.50;99.90
9998;DHT22;5038;53.064;8.624;2024-02-16T05:03:14;10.50;99.90
9998;DHT22;5038;53.064;8.624;2024-02-16T05:05:43;10.50;99.90
9998;DHT22;5038;53.064;8.624;2024-02-16T05:08:12;10.50;99.90
9998;DHT22;5038;53.064;8.624;2024-02-16T05:10:40;10.40;99.90
9998;DHT22;5038;53.064;8.624;2024-02-16T05:13:09;10.50;99.90
9998;DHT22;5038;53.064;8.624;2024-02-16T05:15:40;10.50;99.90
9998;DHT22;5038;53.064;8.624;2024-02-16T05:18:08;10.50;99.90
9998;DHT22;5038;53.064;8.624;2024-02-16T05:20:40;10.50;99.90
9998;DHT22;5038;53.064;8.624;2024-02-16T05:23:08;10.50;99.90
9998;DHT22;5038;53.064;8.624;2024-02-16T05:25:37;10.50;99.90
9998;DHT22;5038;53.064;8.624;2024-02-16T05:28:05;10.50;99.90
9998;DHT22;5038;53.064;8.624;2024-02-16T05:30:34;10.60;99.90
9998;DHT22;5038;53.064;8.624;2024-02-16T05:33:04;10.60;99.90
9998;DHT22;5038;53.064;8.624;2024-02-16T05:35:32;10.60;99.90
9998;DHT22;5038;53.064;8.624;2024-02-16T05:38:01;10.60;99.90
9998;DHT22;5038;53.064;8.624;2024-02-16T05:40:37;10.60;99.90
9998;DHT22;5038;53.064;8.624;2024-02-16T05:43:20;10.60;99.90
9998;DHT22;5038;53.064;8.624;2024-02-16T05:45:48;10.60;99.90
9998;DHT22;5038;53.064;8.624;2024-02-16T05:48:18;10.60;99.90
9998;DHT22;5038;53.064;8.624;2024-02-16T05:50:46;10.60;99.90
9998;DHT22;5038;53.064;8.624;2024-02-16T05:53:15;10.60;99.90
9998;DHT22;5038;53.064;8.624;2024-02-16T05:55:43;10.60;99.90
9998;DHT22;5038;53.064;8.624;2024-02-16T05:58:11;10.60;99.90
9998;DHT22;5038;53.064;8.624;2024-02-16T06:00:39;10.60;99.90
9998;DHT22;5038;53.064;8.624;2024-02-16T06:03:09;10.60;99.90
9998;DHT22;5038;53.064;8.624;2024-02-16T06:05:39;10.60;99.90
9998;DHT22;5038;53.064;8.624;2024-02-16T06:08:11;10.50;99.90
9998;DHT22;5038;53.064;8.624;2024-02-16T06:10:39;10.60;99.90
9998;DHT22;5038;53.064;8.624;2024-02-16T06:13:08;10.50;99.90
9998;DHT22;5038;53.064;8.624;2024-02-16T06:15:37;10.50;99.90
9998;DHT22;5038;53.064;8.624;2024-02-16T06:18:05;10.50;99.90
9998;DHT22;5038;53.064;8.624;2024-02-16T06:20:33;10.50;99.90
9998;DHT22;5038;53.064;8.624;2024-02-16T06:23:03;10.60;99.90
9998;DHT22;5038;53.064;8.624;2024-02-16T06:25:32;10.60;99.90
9998;DHT22;5038;53.064;8.624;2024-02-16T06:28:00;10.60;99.90
9998;DHT22;5038;53.064;8.624;2024-02-16T06:30:29;10.60;99.90
9998;DHT22;5038;53.064;8.624;2024-02-16T06:32:58;10.60;99.90
9998;DHT22;5038;53.064;8.624;2024-02-16T06:35:29;10.70;99.90
9998;DHT22;5038;53.064;8.624;2024-02-16T06:37:57;10.70;99.90
9998;DHT22;5038;53.064;8.624;2024-02-16T06:40:27;10.70;99.90
9998;DHT22;5038;53.064;8.624;2024-02-16T06:42:55;10.70;99.90
9998;DHT22;5038;53.064;8.624;2024-02-16T06:45:23;10.70;99.90
9998;DHT22;5038;53.064;8.624;2024-02-16T06:47:52;10.80;99.90
9998;DHT22;5038;53.064;8.624;2024-02-16T06:50:21;10.80;99.90
9998;DHT22;5038;53.064;8.624;2024-02-16T06:52:49;10.80;99.90
9998;DHT22;5038;53.064;8.624;2024-02-16T06:55:17;10.80;99.90
9998;DHT22;5038;53.064;8.624;2024-02-16T06:57:47;10.80;99.90
9998;DHT22;5038;53.064;8.624;2024-02-16T07:00:18;10.80;99.90
9998;DHT22;5038;53.064;8.624;2024-02-16T07:02:47;10.80;99.90
9998;DHT22;5038;53.064;8.624;2024-02-16T07:05:15;10.80;99.90
9998;DHT22;5038;53.064;8.624;2024-02-16T07:07:45;10.80;99.90
9998;DHT22;5038;53.064;8.624;2024-02-16T07:10:13;10.80;99.90
9998;DHT22;5038;53.064;8.624;2024-02-16T07:12:41;10.80;99.90
9998;DHT22;5038;53.064;8.624;2024-02-16T07:15:11;10.80;99.90
9998;DHT22;5038;53.064;8.624;2024-02-16T07:17:40;10.80;99.90
9998;DHT22;5038;53.064;8.624;2024-02-16T07:20:08;10.80;99.90
9998;DHT22;5038;53.064;8.624;2024-02-16T07:22:37;10.80;99.90
9998;DHT22;5038;53.064;8.624;2024-02-16T07:25:06;10.80;99.90
9998;DHT22;5038;53.064;8.624;2024-02-16T07:27:35;10.80;99.90
9998;DHT22;5038;53.064;8.624;2024-02-16T07:30:04;10.80;99.90
9998;DHT22;5038;53.064;8.624;2024-02-16T07:32:34;10.80;99.90
9998;DHT22;5038;53.064;8.624;2024-02-16T07:35:03;10.80;99.90
9998;DHT22;5038;53.064;8.624;2024-02-16T07:37:32;10.80;99.90
9998;DHT22;5038;53.064;8.624;2024-02-16T07:40:00;10.90;99.90
9998;DHT22;5038;53.064;8.624;2024-02-16T07:42:28;10.80;99.90
9998;DHT22;5038;53.064;8.624;2024-02-16T07:44:57;10.90;99.90
9998;DHT22;5038;53.064;8.624;2024-02-16T07:47:25;10.90;99.90
9998;DHT22;5038;53.064;8.624;2024-02-16T07:49:56;10.90;99.90
9998;DHT22;5038;53.064;8.624;2024-02-16T07:52:24;10.90;99.90
9998;DHT22;5038;53.064;8.624;2024-02-16T07:54:52;11.00;99.90
9998;DHT22;5038;53.064;8.624;2024-02-16T07:57:20;11.00;99.90
9998;DHT22;5038;53.064;8.624;2024-02-16T07:59:49;11.00;99.90
9998;DHT22;5038;53.064;8.624;2024-02-16T08:02:17;11.00;99.90
9998;DHT22;5038;53.064;8.624;2024-02-16T08:04:47;11.10;99.90
9998;DHT22;5038;53.064;8.624;2024-02-16T08:07:16;11.10;99.90
9998;DHT22;5038;53.064;8.624;2024-02-16T08:09:45;11.10;99.90
9998;DHT22;5038;53.064;8.624;2024-02-16T08:12:15;11.10;99.90
9998;DHT22;5038;53.064;8.624;2024-02-16T08:14:43;11.10;99.90
9998;DHT22;5038;53.064;8.624;2024-02-16T08:17:13;11.20;99.90
9998;DHT22;5038;53.064;8.624;2024-02-16T08:19:52;11.20;99.90
9998;DHT22;5038;53.064;8.624;2024-02-16T08:22:22;11.30;99.90
9998;DHT22;5038;53.064;8.624;2024-02-16T08:24:51;11.30;99.90
9998;DHT22;5038;53.064;8.624;2024-02-16T08:27:20;11.30;99.90
9998;DHT22;5038;53.064;8.624;2024-02-16T08:29:48;11.30;99.90
9998;DHT22;5038;53.064;8.624;2024-02-16T08:32:17;11.40;99.90
9998;DHT22;5038;53.064;8.624;2024-02-16T08:34:47;11.40;99.90
9998;DHT22;5038;53.064;8.624;2024-02-16T08:37:17;11.50;99.90
9998;DHT22;5038;53.064;8.624;2024-02-16T08:39:48;11.50;99.90
9998;DHT22;5038;53.064;8.624;2024-02-16T08:42:16;11.50;99.90
9998;DHT22;5038;53.064;8.624;2024-02-16T08:44:44;11.50;99.90
9998;DHT22;5038;53.064;8.624;2024-02-16T08:47:13;11.60;99.90
9998;DHT22;5038;53.064;8.624;2024-02-16T08:49:41;11.60;99.90
9998;DHT22;5038;53.064;8.624;2024-02-16T08:52:09;11.70;99.90
9998;DHT22;5038;53.064;8.624;2024-02-16T08:54:38;11.70;99.90
9998;DHT22;5038;53.064;8.624;2024-02-16T08:57:08;11.80;99.90
9998;DHT22;5038;53.064;8.624;2024-02-16T08:59:37;11.80;99.90
9998;DHT22;5038;53.064;8.624;2024-02-16T09:02:05;11.90;99.90
9998;DHT22;5038;53.064;8.624;2024-02-16T09:04:34;11.90;99.90
9998;DHT22;5038;53.064;8.624;2024-02-16T09:07:02;11.90;99.90
9998;DHT22;5038;53.064;8.624;2024-02-16T09:09:31;12.00;99.90
9998;DHT22;5038;53.064;8.624;2024-02-16T09:12:00;12.10;99.90
9998;DHT22;5038;53.064;8.624;2024-02-16T09:14:30;12.10;99.90
9998;DHT22;5038;53.064;8.624;2024-02-16T09:16:59;12.10;99.90
9998;DHT22;5038;53.064;8.624;2024-02-16T09:19:27;12.20;99.90
9998;DHT22;5038;53.064;8.624;2024-02-16T09:21:55;12.30;99.90
9998;DHT22;5038;53.064;8.624;2024-02-16T09:24:25;12.30;99.90
9998;DHT22;5038;53.064;8.624;2024-02-16T09:26:56;12.40;99.90
9998;DHT22;5038;53.064;8.624;2024-02-16T09:29:29;12.40;99.90
9998;DHT22;5038;53.064;8.624;2024-02-16T09:31:57;12.50;99.90
9998;DHT22;5038;53.064;8.624;2024-02-16T09:34:27;12.50;99.90
9998;DHT22;5038;53.064;8.624;2024-02-16T09:36:55;12.60;99.90
9998;DHT22;5038;53.064;8.624;2024-02-16T09:39:23;12.60;99.90
9998;DHT22;5038;53.064;8.624;2024-02-16T09:41:54;12.70;99.90
9998;DHT22;5038;53.064;8.624;2024-02-16T09:44:23;12.70;99.90
9998;DHT22;5038;53.064;8.624;2024-02-16T09:46:54;12.80;99.90
9998;DHT22;5038;53.064;8.624;2024-02-16T09:49:22;12.80;99.90
9998;DHT22;5038;53.064;8.624;2024-02-16T09:52:03;12.90;99.90
9998;DHT22;5038;53.064;8.624;2024-02-16T09:54:32;12.90;99.90
9998;DHT22;5038;53.064;8.624;2024-02-16T09:57:01;13.00;99.90
9998;DHT22;5038;53.064;8.624;2024-02-16T09:59:31;13.00;99.90
9998;DHT22;5038;53.064;8.624;2024-02-16T10:02:02;13.10;99.90
9998;DHT22;5038;53.064;8.624;2024-02-16T10:04:30;13.10;99.90
9998;DHT22;5038;53.064;8.624;2024-02-16T10:07:03;13.10;99.90
9998;DHT22;5038;53.064;8.624;2024-02-16T10:09:39;13.10;99.90
9998;DHT22;5038;53.064;8.624;2024-02-16T10:12:09;13.10;99.90
9998;DHT22;5038;53.064;8.624;2024-02-16T10:14:38;13.20;99.90
9998;DHT22;5038;53.064;8.624;2024-02-16T10:17:09;13.20;99.90
9998;DHT22;5038;53.064;8.624;2024-02-16T10:19:44;13.20;99.90
9998;DHT22;5038;53.064;8.624;2024-02-16T10:22:12;13.30;99.90
9998;DHT22;5038;53.064;8.624;2024-02-16T10:24:41;13.30;99.90
9998;DHT22;5038;53.064;8.624;2024-02-16T10:27:14;13.30;99.90
9998;DHT22;5038;53.064;8.624;2024-02-16T10:29:43;13.40;99.90
9998;DHT22;5038;53.064;8.624;2024-02-16T10:32:14;13.40;99.90
9998;DHT22;5038;53.064;8.624;2024-02-16T10:34:43;13.40;99.90
9998;DHT22;5038;53.064;8.624;2024-02-16T10:37:12;13.50;99.90
9998;DHT22;5038;53.064;8.624;2024-02-16T10:39:41;13.50;99.90
9998;DHT22;5038;53.064;8.624;2024-02-16T10:42:11;13.60;99.90
9998;DHT22;5038;53.064;8.624;2024-02-16T10:44:40;13.60;99.90
9998;DHT22;5038;53.064;8.624;2024-02-16T10:47:09;13.60;99.90
9998;DHT22;5038;53.064;8.624;2024-02-16T10:49:39;13.70;99.90
9998;DHT22;5038;53.064;8.624;2024-02-16T10:52:08;13.70;99.90
9998;DHT22;5038;53.064;8.624;2024-02-16T10:54:37;13.80;99.90
9998;DHT22;5038;53.064;8.624;2024-02-16T10:57:08;13.90;99.90
9998;DHT22;5038;53.064;8.624;2024-02-16T10:59:41;13.90;99.90
9998;DHT22;5038;53.064;8.624;2024-02-16T11:02:11;14.00;99.90
9998;DHT22;5038;53.064;8.624;2024-02-16T11:04:45;14.00;99.90
9998;DHT22;5038;53.064;8.624;2024-02-16T11:07:16;14.10;99.90
9998;DHT22;5038;53.064;8.624;2024-02-16T11:09:46;14.10;99.90
9998;DHT22;5038;53.064;8.624;2024-02-16T11:12:15;14.20;99.90
9998;DHT22;5038;53.064;8.624;2024-02-16T11:14:45;14.20;99.90
9998;DHT22;5038;53.064;8.624;2024-02-16T11:17:14;14.30;99.90
9998;DHT22;5038;53.064;8.624;2024-02-16T11:19:45;14.30;99.90
9998;DHT22;5038;53.064;8.624;2024-02-16T11:22:16;14.40;99.90
9998;DHT22;5038;53.064;8.624;2024-02-16T11:24:46;14.40;99.90
9998;DHT22;5038;53.064;8.624;2024-02-16T11:27:15;14.40;99.90
9998;DHT22;5038;53.064;8.624;2024-02-16T11:29:48;14.40;99.90
9998;DHT22;5038;53.064;8.624;2024-02-16T11:32:18;14.50;99.90
9998;DHT22;5038;53.064;8.624;2024-02-16T11:34:49;14.50;99.90
9998;DHT22;5038;53.064;8.624;2024-02-16T11:37:17;14.50;99.90
9998;DHT22;5038;53.064;8.624;2024-02-16T11:39:46;14.50;99.90
9998;DHT22;5038;53.064;8.624;2024-02-16T11:42:19;14.50;99.90
9998;DHT22;5038;53.064;8.624;2024-02-16T11:44:52;14.50;99.90
9998;DHT22;5038;53.064;8.624;2024-02-16T11:47:22;14.50;99.90
9998;DHT22;5038;53.064;8.624;2024-02-16T11:50:03;14.50;99.90
9998;DHT22;5038;53.064;8.624;2024-02-16T11:52:32;14.50;99.90
9998;DHT22;5038;53.064;8.624;2024-02-16T11:55:01;14.50;99.90
9998;DHT22;5038;53.064;8.624;2024-02-16T11:57:32;14.50;99.90
9998;DHT22;5038;53.064;8.624;2024-02-16T12:00:01;14.50;99.90
9998;DHT22;5038;53.064;8.624;2024-02-16T12:02:35;14.50;99.90
9998;DHT22;5038;53.064;8.624;2024-02-16T12:05:06;14.50;99.90
9998;DHT22;5038;53.064;8.624;2024-02-16T12:07:37;14.50;99.90
9998;DHT22;5038;53.064;8.624;2024-02-16T12:10:08;14.50;99.90
9998;DHT22;5038;53.064;8.624;2024-02-16T12:12:37;14.50;99.90
9998;DHT22;5038;53.064;8.624;2024-02-16T12:15:07;14.50;99.90
9998;DHT22;5038;53.064;8.624;2024-02-16T12:17:35;14.50;99.90
9998;DHT22;5038;53.064;8.624;2024-02-16T12:20:11;14.50;99.90
9998;DHT22;5038;53.064;8.624;2024-02-16T12:22:40;14.50;99.90
9998;DHT22;5038;53.064;8.624;2024-02-16T12:25:08;14.50;99.90
9998;DHT22;5038;53.064;8.624;2024-02-16T12:27:36;14.50;99.90
9998;DHT22;5038;53.064;8.624;2024-02-16T12:30:06;14.50;99.90
9998;DHT22;5038;53.064;8.624;2024-02-16T12:32:34;14.50;99.90
9998;DHT22;5038;53.064;8.624;2024-02-16T12:35:05;14.50;99.90
9998;DHT22;5038;53.064;8.624;2024-02-16T12:37:34;14.50;99.90
9998;DHT22;5038;53.064;8.624;2024-02-16T12:40:05;14.50;99.90
9998;DHT22;5038;53.064;8.624;2024-02-16T12:42:34;14.50;99.90
9998;DHT22;5038;53.064;8.624;2024-02-16T12:45:02;14.50;99.90
9998;DHT22;5038;53.064;8.624;2024-02-16T12:47:31;14.60;99.90
9998;DHT22;5038;53.064;8.624;2024-02-16T12:49:59;14.60;99.90
9998;DHT22;5038;53.064;8.624;2024-02-16T12:52:29;14.60;99.90
9998;DHT22;5038;53.064;8.624;2024-02-16T12:55:07;14.60;99.90
9998;DHT22;5038;53.064;8.624;2024-02-16T12:57:37;14.70;99.90
9998;DHT22;5038;53.064;8.624;2024-02-16T13:00:07;14.70;99.90
9998;DHT22;5038;53.064;8.624;2024-02-16T13:02:35;14.70;99.90
9998;DHT22;5038;53.064;8.624;2024-02-16T13:05:04;14.70;99.90
9998;DHT22;5038;53.064;8.624;2024-02-16T13:07:34;14.80;99.90
9998;DHT22;5038;53.064;8.624;2024-02-16T13:10:06;14.80;99.90
9998;DHT22;5038;53.064;8.624;2024-02-16T13:12:34;14.80;99.90
9998;DHT22;5038;53.064;8.624;2024-02-16T13:15:04;14.80;99.90
9998;DHT22;5038;53.064;8.624;2024-02-16T13:17:52;14.70;99.90
9998;DHT22;5038;53.064;8.624;2024-02-16T13:20:22;14.80;99.90
9998;DHT22;5038;53.064;8.624;2024-02-16T13:22:51;14.70;99.90
9998;DHT22;5038;53.064;8.624;2024-02-16T13:25:20;14.70;99.90
9998;DHT22;5038;53.064;8.624;2024-02-16T13:27:49;14.70;99.90
9998;DHT22;5038;53.064;8.624;2024-02-16T13:30:17;14.70;99.90
9998;DHT22;5038;53.064;8.624;2024-02-16T13:32:45;14.60;99.90
9998;DHT22;5038;53.064;8.624;2024-02-16T13:35:14;14.60;99.90
9998;DHT22;5038;53.064;8.624;2024-02-16T13:37:47;14.60;99.90
9998;DHT22;5038;53.064;8.624;2024-02-16T13:40:16;14.60;99.90
9998;DHT22;5038;53.064;8.624;2024-02-16T13:42:45;14.50;99.90
9998;DHT22;5038;53.064;8.624;2024-02-16T13:45:15;14.50;99.90
9998;DHT22;5038;53.064;8.624;2024-02-16T13:47:43;14.50;99.90
9998;DHT22;5038;53.064;8.624;2024-02-16T13:50:11;14.40;99.90
9998;DHT22;5038;53.064;8.624;2024-02-16T13:52:40;14.40;99.90
9998;DHT22;5038;53.064;8.624;2024-02-16T13:55:08;14.40;99.90
9998;DHT22;5038;53.064;8.624;2024-02-16T13:57:38;14.40;99.90
9998;DHT22;5038;53.064;8.624;2024-02-16T14:00:07;14.40;99.90
9998;DHT22;5038;53.064;8.624;2024-02-16T14:02:39;14.30;99.90
9998;DHT22;5038;53.064;8.624;2024-02-16T14:05:08;14.30;99.90
9998;DHT22;5038;53.064;8.624;2024-02-16T14:07:36;14.20;99.90
9998;DHT22;5038;53.064;8.624;2024-02-16T14:10:17;14.20;99.90
9998;DHT22;5038;53.064;8.624;2024-02-16T14:12:47;14.20;99.90
9998;DHT22;5038;53.064;8.624;2024-02-16T14:15:15;14.10;99.90
9998;DHT22;5038;53.064;8.624;2024-02-16T14:17:44;14.10;99.90
9998;DHT22;5038;53.064;8.624;2024-02-16T14:20:12;14.10;99.90
9998;DHT22;5038;53.064;8.624;2024-02-16T14:22:41;14.10;99.90
9998;DHT22;5038;53.064;8.624;2024-02-16T14:25:11;14.10;99.90
9998;DHT22;5038;53.064;8.624;2024-02-16T14:27:40;14.00;99.90
9998;DHT22;5038;53.064;8.624;2024-02-16T14:30:12;14.00;99.90
9998;DHT22;5038;53.064;8.624;2024-02-16T14:32:41;14.00;99.90
9998;DHT22;5038;53.064;8.624;2024-02-16T14:35:09;13.90;99.90
9998;DHT22;5038;53.064;8.624;2024-02-16T14:37:38;13.90;99.90
9998;DHT22;5038;53.064;8.624;2024-02-16T14:40:07;13.90;99.90
9998;DHT22;5038;53.064;8.624;2024-02-16T14:42:38;13.90;99.90
9998;DHT22;5038;53.064;8.624;2024-02-16T14:45:08;13.90;99.90
9998;DHT22;5038;53.064;8.624;2024-02-16T14:47:48;13.90;99.90
9998;DHT22;5038;53.064;8.624;2024-02-16T14:50:17;13.80;99.90
9998;DHT22;5038;53.064;8.624;2024-02-16T14:52:46;13.80;99.90
9998;DHT22;5038;53.064;8.624;2024-02-16T14:55:15;13.80;99.90
9998;DHT22;5038;53.064;8.624;2024-02-16T14:57:43;13.80;99.90
9998;DHT22;5038;53.064;8.624;2024-02-16T15:00:12;13.80;99.90
9998;DHT22;5038;53.064;8.624;2024-02-16T15:02:41;13.80;99.90
9998;DHT22;5038;53.064;8.624;2024-02-16T15:05:11;13.80;99.90
9998;DHT22;5038;53.064;8.624;2024-02-16T15:07:40;13.70;99.90
9998;DHT22;5038;53.064;8.624;2024-02-16T15:10:09;13.70;99.90
9998;DHT22;5038;53.064;8.624;2024-02-16T15:12:38;13.70;99.90
9998;DHT22;5038;53.064;8.624;2024-02-16T15:15:07;13.70;99.90
9998;DHT22;5038;53.064;8.624;2024-02-16T15:17:36;13.70;99.90
9998;DHT22;5038;53.064;8.624;2024-02-16T15:20:05;13.60;99.90
9998;DHT22;5038;53.064;8.624;2024-02-16T15:22:35;13.60;99.90
9998;DHT22;5038;53.064;8.624;2024-02-16T15:25:18;13.60;99.90
9998;DHT22;5038;53.064;8.624;2024-02-16T15:27:47;13.60;99.90
9998;DHT22;5038;53.064;8.624;2024-02-16T15:30:15;13.50;99.90
9998;DHT22;5038;53.064;8.624;2024-02-16T15:32:44;13.50;99.90
9998;DHT22;5038;53.064;8.624;2024-02-16T15:35:12;13.50;99.90
9998;DHT22;5038;53.064;8.624;2024-02-16T15:37:42;13.50;99.90
9998;DHT22;5038;53.064;8.624;2024-02-16T15:40:12;13.50;99.90
9998;DHT22;5038;53.064;8.624;2024-02-16T15:42:41;13.50;99.90
9998;DHT22;5038;53.064;8.624;2024-02-16T15:45:10;13.40;99.90
9998;DHT22;5038;53.064;8.624;2024-02-16T15:47:39;13.40;99.90
9998;DHT22;5038;53.064;8.624;2024-02-16T15:50:08;13.30;99.90
9998;DHT22;5038;53.064;8.624;2024-02-16T15:52:37;13.30;99.90
9998;DHT22;5038;53.064;8.624;2024-02-16T15:55:07;13.20;99.90
9998;DHT22;5038;53.064;8.624;2024-02-16T15:57:36;13.20;99.90
9998;DHT22;5038;53.064;8.624;2024-02-16T16:00:05;13.10;99.90
9998;DHT22;5038;53.064;8.624;2024-02-16T16:02:34;13.10;99.90
9998;DHT22;5038;53.064;8.624;2024-02-16T16:05:03;13.00;99.90
9998;DHT22;5038;53.064;8.624;2024-02-16T16:07:31;13.00;99.90
9998;DHT22;5038;53.064;8.624;2024-02-16T16:09:59;12.90;99.90
9998;DHT22;5038;53.064;8.624;2024-02-16T16:12:29;12.90;99.90
9998;DHT22;5038;53.064;8.624;2024-02-16T16:14:57;12.90;99.90